createdAt,value
2022-09-20T00:01:21.932Z,3.27
2022-09-20T00:03:51.514Z,3.27
2022-09-20T00:06:22.692Z,3.40
2022-09-20T00:08:50.872Z,3.07
2022-09-20T00:11:21.964Z,3.47
2022-09-20T00:13:52.250Z,4.33
2022-09-20T00:16:23.729Z,3.57
2022-09-20T00:18:52.960Z,4.53
2022-09-20T00:21:23.186Z,3.20
2022-09-20T00:23:52.432Z,3.53
2022-09-20T00:26:21.855Z,3.67
2022-09-20T00:28:50.792Z,3.00
2022-09-20T00:31:18.921Z,3.30
2022-09-20T00:34:04.840Z,3.60
2022-09-20T00:36:32.756Z,3.53
2022-09-20T00:39:03.027Z,3.57
2022-09-20T00:41:33.440Z,3.37
2022-09-20T00:44:02.690Z,3.90
2022-09-20T00:46:37.516Z,3.10
2022-09-20T00:49:12.521Z,4.90
2022-09-20T00:51:44.125Z,3.67
2022-09-20T00:54:18.182Z,3.83
2022-09-20T00:56:49.986Z,3.30
2022-09-20T00:59:20.816Z,3.80
2022-09-20T01:01:53.540Z,3.30
2022-09-20T01:04:25.235Z,3.60
2022-09-20T01:06:55.848Z,4.73
2022-09-20T01:09:23.801Z,3.40
2022-09-20T01:11:55.407Z,3.47
2022-09-20T01:14:24.173Z,3.60
2022-09-20T01:16:54.593Z,4.33
2022-09-20T01:19:33.676Z,3.67
2022-09-20T01:22:05.352Z,3.23
2022-09-20T01:24:42.675Z,3.83
2022-09-20T01:27:23.333Z,3.10
2022-09-20T01:30:05.189Z,3.47
2022-09-20T01:32:44.030Z,3.37
2022-09-20T01:35:13.053Z,3.30
2022-09-20T01:37:54.583Z,3.30
2022-09-20T01:40:31.832Z,3.73
2022-09-20T01:43:09.428Z,3.67
2022-09-20T01:45:46.103Z,4.10
2022-09-20T01:48:20.687Z,3.93
2022-09-20T01:51:12.429Z,3.90
2022-09-20T01:54:10.869Z,5.40
2022-09-20T01:57:12.035Z,3.83
2022-09-20T01:59:56.760Z,3.47
2022-09-20T02:03:00.948Z,3.83
2022-09-20T02:06:08.568Z,5.60
2022-09-20T02:09:08.719Z,4.00
2022-09-20T02:11:52.125Z,3.60
2022-09-20T02:14:33.185Z,3.70
2022-09-20T02:17:12.112Z,3.73
2022-09-20T02:20:05.460Z,4.50
2022-09-20T02:22:45.772Z,6.93
2022-09-20T02:25:24.716Z,4.00
2022-09-20T02:28:07.356Z,3.80
2022-09-20T02:30:50.287Z,3.77
2022-09-20T02:33:33.444Z,3.40
2022-09-20T02:36:17.540Z,5.33
2022-09-20T02:39:00.235Z,4.17
2022-09-20T02:41:59.985Z,3.50
2022-09-20T02:44:44.943Z,3.60
2022-09-20T02:47:22.643Z,3.70
2022-09-20T02:50:04.168Z,3.73
2022-09-20T02:52:38.972Z,4.23
2022-09-20T02:55:13.110Z,3.73
2022-09-20T02:57:53.667Z,3.83
2022-09-20T03:00:25.388Z,3.77
2022-09-20T03:03:06.318Z,3.57
2022-09-20T03:05:48.883Z,4.80
2022-09-20T03:08:31.179Z,4.40
2022-09-20T03:11:10.524Z,4.00
2022-09-20T03:13:55.696Z,4.17
2022-09-20T03:16:36.463Z,9.10
2022-09-20T03:19:16.653Z,4.07
2022-09-20T03:21:57.753Z,4.13
2022-09-20T03:24:40.627Z,3.97
2022-09-20T03:27:17.612Z,3.90
2022-09-20T03:30:00.000Z,4.00
2022-09-20T03:32:45.854Z,4.27
2022-09-20T03:35:30.296Z,4.60
2022-09-20T03:38:14.148Z,3.87
2022-09-20T03:40:59.855Z,5.53
2022-09-20T03:43:42.669Z,4.10
2022-09-20T03:46:18.933Z,4.17
2022-09-20T03:49:33.568Z,4.53
2022-09-20T03:52:14.192Z,3.90
2022-09-20T03:55:11.768Z,4.70
2022-09-20T03:58:08.742Z,3.97
2022-09-20T04:00:53.079Z,4.57
2022-09-20T04:03:29.679Z,4.80
2022-09-20T04:06:19.120Z,4.50
2022-09-20T04:09:06.005Z,4.57
2022-09-20T04:11:44.382Z,4.00
2022-09-20T04:14:24.120Z,4.50
2022-09-20T04:17:01.113Z,5.40
2022-09-20T04:19:36.545Z,5.23
2022-09-20T04:22:07.436Z,6.30
2022-09-20T04:24:43.101Z,5.40
2022-09-20T04:27:16.202Z,6.40
2022-09-20T04:29:51.529Z,5.23
2022-09-20T04:32:26.110Z,4.30
2022-09-20T04:35:19.084Z,4.93
2022-09-20T04:37:48.595Z,4.57
2022-09-20T04:40:31.895Z,6.57
2022-09-20T04:43:35.315Z,4.50
2022-09-20T04:46:28.540Z,5.00
2022-09-20T04:49:32.411Z,4.77
2022-09-20T04:52:39.129Z,4.50
2022-09-20T04:55:49.564Z,4.90
2022-09-20T04:58:49.578Z,6.13
2022-09-20T05:01:45.670Z,4.37
2022-09-20T05:04:55.093Z,5.63
2022-09-20T05:07:57.686Z,6.03
2022-09-20T05:10:59.313Z,4.27
2022-09-20T05:13:39.624Z,5.90
2022-09-20T05:16:16.926Z,4.90
2022-09-20T05:19:12.197Z,5.80
2022-09-20T05:21:58.517Z,14.40
2022-09-20T05:25:07.299Z,6.00
2022-09-20T05:27:43.208Z,5.10
2022-09-20T05:30:20.700Z,7.90
2022-09-20T05:33:00.098Z,5.00
2022-09-20T05:35:35.213Z,8.20
2022-09-20T05:38:12.811Z,9.80
2022-09-20T05:41:00.430Z,6.03
2022-09-20T05:43:33.389Z,5.03
2022-09-20T05:46:16.438Z,5.47
2022-09-20T05:48:56.455Z,5.17
2022-09-20T05:51:57.806Z,5.17
2022-09-20T05:54:37.562Z,4.93
2022-09-20T05:57:18.044Z,5.17
2022-09-20T06:00:00.015Z,5.47
2022-09-20T06:02:42.417Z,5.57
2022-09-20T06:05:16.795Z,5.47
2022-09-20T06:08:17.137Z,6.47
2022-09-20T06:11:10.066Z,5.57
2022-09-20T06:14:01.106Z,5.20
2022-09-20T06:16:37.030Z,5.33
2022-09-20T06:19:15.171Z,5.97
2022-09-20T06:21:51.166Z,4.87
2022-09-20T06:24:33.758Z,7.17
2022-09-20T06:27:06.394Z,5.10
2022-09-20T06:29:38.555Z,5.37
2022-09-20T06:32:06.694Z,4.93
2022-09-20T06:34:35.244Z,4.80
2022-09-20T06:37:36.561Z,5.20
2022-09-20T06:40:38.887Z,5.17
2022-09-20T06:43:07.062Z,5.00
2022-09-20T06:45:35.795Z,16.10
2022-09-20T06:48:03.737Z,14.40
2022-09-20T06:50:33.665Z,7.00
2022-09-20T06:53:02.281Z,5.27
2022-09-20T06:55:37.359Z,4.93
2022-09-20T06:58:05.324Z,5.13
2022-09-20T07:00:33.338Z,4.97
2022-09-20T07:03:01.375Z,5.03
2022-09-20T07:05:29.260Z,4.07
2022-09-20T07:08:01.410Z,4.93
2022-09-20T07:10:30.755Z,4.43
2022-09-20T07:13:00.371Z,4.90
2022-09-20T07:15:28.864Z,5.50
2022-09-20T07:17:56.788Z,4.90
2022-09-20T07:20:24.844Z,4.80
2022-09-20T07:22:53.587Z,6.23
2022-09-20T07:25:21.636Z,4.70
2022-09-20T07:27:52.190Z,7.37
2022-09-20T07:30:21.702Z,5.80
2022-09-20T07:32:50.354Z,5.23
2022-09-20T07:35:18.180Z,4.60
2022-09-20T07:37:46.943Z,4.40
2022-09-20T07:40:15.859Z,4.57
2022-09-20T07:42:46.005Z,7.40
2022-09-20T07:45:15.567Z,5.40
2022-09-20T07:47:44.868Z,5.40
2022-09-20T07:50:13.141Z,5.53
2022-09-20T07:52:41.025Z,5.90
2022-09-20T07:55:09.978Z,5.73
2022-09-20T07:57:38.282Z,5.90
2022-09-20T08:00:08.410Z,5.93
2022-09-20T08:02:41.868Z,6.20
2022-09-20T08:05:10.113Z,7.37
2022-09-20T08:07:38.556Z,5.70
2022-09-20T08:10:07.616Z,5.70
2022-09-20T08:15:24.527Z,5.70
2022-09-20T08:17:54.044Z,8.87
2022-09-20T08:20:21.883Z,5.73
2022-09-20T08:23:06.371Z,5.57
2022-09-20T08:25:38.364Z,5.73
2022-09-20T08:28:06.267Z,5.57
2022-09-20T08:30:34.181Z,5.50
2022-09-20T08:33:04.873Z,4.90
2022-09-20T08:35:32.742Z,5.00
2022-09-20T08:40:50.473Z,5.43
2022-09-20T08:43:22.225Z,4.93
2022-09-20T08:45:50.840Z,7.10
2022-09-20T08:48:23.822Z,4.93
2022-09-20T08:50:51.694Z,6.07
2022-09-20T08:53:21.266Z,5.23
2022-09-20T08:55:49.862Z,4.53
2022-09-20T08:58:19.440Z,4.60
2022-09-20T09:00:54.530Z,5.03
2022-09-20T09:03:24.221Z,5.03
2022-09-20T09:05:55.019Z,4.70
2022-09-20T09:08:27.300Z,4.90
2022-09-20T09:10:58.240Z,5.07
2022-09-20T09:13:31.166Z,4.63
2022-09-20T09:16:01.266Z,5.77
2022-09-20T09:18:35.053Z,4.67
2022-09-20T09:21:05.303Z,4.53
2022-09-20T09:23:43.516Z,6.23
2022-09-20T09:26:19.957Z,4.00
2022-09-20T09:28:48.403Z,4.47
2022-09-20T09:31:25.804Z,5.23
2022-09-20T09:33:55.925Z,4.13
2022-09-20T09:36:25.970Z,4.30
2022-09-20T09:39:16.480Z,4.97
2022-09-20T09:41:46.353Z,4.60
2022-09-20T09:44:23.317Z,4.43
2022-09-20T09:46:53.641Z,4.77
2022-09-20T09:49:25.494Z,4.70
2022-09-20T09:52:12.967Z,4.10
2022-09-20T09:54:44.462Z,3.57
2022-09-20T09:57:35.362Z,3.70
2022-09-20T10:00:17.764Z,3.63
2022-09-20T10:03:15.061Z,4.00
2022-09-20T10:06:00.622Z,6.90
2022-09-20T10:08:38.251Z,4.03
2022-09-20T10:11:19.240Z,6.00
2022-09-20T10:13:58.478Z,5.33
2022-09-20T10:16:37.675Z,4.43
2022-09-20T10:19:15.084Z,4.83
2022-09-20T10:21:56.284Z,4.53
2022-09-20T10:24:36.397Z,4.57
2022-09-20T10:27:19.267Z,3.97
2022-09-20T10:30:02.907Z,4.17
2022-09-20T10:32:53.954Z,4.03
2022-09-20T10:35:30.359Z,5.80
2022-09-20T10:38:21.633Z,4.10
2022-09-20T10:41:28.259Z,5.17
2022-09-20T10:44:13.606Z,5.20
2022-09-20T10:46:49.928Z,5.30
2022-09-20T10:49:25.015Z,5.40
2022-09-20T10:52:10.062Z,4.50
2022-09-20T10:54:53.826Z,4.67
2022-09-20T10:57:46.541Z,4.03
2022-09-20T11:00:22.231Z,4.13
2022-09-20T11:03:08.011Z,5.80
2022-09-20T11:05:44.855Z,5.93
2022-09-20T11:08:16.324Z,3.87
2022-09-20T11:10:50.163Z,3.80
2022-09-20T11:13:26.196Z,4.00
2022-09-20T11:16:01.681Z,4.20
2022-09-20T11:18:35.689Z,3.43
2022-09-20T11:21:09.532Z,4.87
2022-09-20T11:23:46.307Z,4.40
2022-09-20T11:26:22.447Z,4.00
2022-09-20T11:28:55.098Z,3.93
2022-09-20T11:31:27.802Z,3.57
2022-09-20T11:34:00.424Z,3.97
2022-09-20T11:36:38.321Z,4.30
2022-09-20T11:39:14.917Z,4.23
2022-09-20T11:41:44.905Z,3.80
2022-09-20T11:44:16.281Z,4.10
2022-09-20T11:46:52.268Z,3.53
2022-09-20T11:49:24.896Z,4.30
2022-09-20T11:52:17.482Z,3.90
2022-09-20T11:55:28.106Z,4.67
2022-09-20T11:58:08.222Z,4.07
2022-09-20T12:00:38.757Z,3.47
2022-09-20T12:03:21.745Z,4.57
2022-09-20T12:05:58.903Z,4.50
2022-09-20T12:08:30.504Z,4.50
2022-09-20T12:11:04.221Z,4.60
2022-09-20T12:13:36.381Z,3.97
2022-09-20T12:16:07.685Z,4.33
2022-09-20T12:18:47.998Z,3.93
2022-09-20T12:21:17.807Z,3.30
2022-09-20T12:24:18.162Z,3.30
2022-09-20T12:26:48.400Z,3.27
2022-09-20T12:29:55.205Z,5.53
2022-09-20T12:32:47.901Z,4.77
2022-09-20T12:35:59.269Z,3.93
2022-09-20T12:38:34.022Z,3.33
2022-09-20T12:41:05.837Z,3.97
2022-09-20T12:43:36.575Z,3.67
2022-09-20T12:46:09.880Z,3.80
2022-09-20T12:48:41.217Z,4.23
2022-09-20T12:51:40.349Z,3.77
2022-09-20T12:54:11.762Z,3.53
2022-09-20T12:56:41.777Z,3.50
2022-09-20T12:59:23.380Z,5.67
2022-09-20T13:01:51.803Z,4.57
2022-09-20T13:04:53.086Z,4.30
2022-09-20T13:07:53.184Z,5.23
2022-09-20T13:10:30.275Z,3.43
2022-09-20T13:13:19.883Z,4.10
2022-09-20T13:15:51.661Z,4.27
2022-09-20T13:18:20.295Z,3.93
2022-09-20T13:20:51.723Z,4.47
2022-09-20T13:23:24.887Z,4.43
2022-09-20T13:25:53.668Z,4.40
2022-09-20T13:28:31.331Z,6.40
2022-09-20T13:31:24.882Z,3.83
2022-09-20T13:33:53.744Z,5.03
2022-09-20T13:36:28.272Z,5.90
2022-09-20T13:38:58.662Z,3.90
2022-09-20T13:41:32.566Z,2.57
2022-09-20T13:44:01.384Z,2.30
2022-09-20T13:46:32.178Z,2.40
2022-09-20T13:49:15.070Z,2.47
2022-09-20T13:51:45.121Z,3.27
2022-09-20T13:54:26.641Z,2.37
2022-09-20T13:56:56.553Z,2.30
2022-09-20T13:59:25.140Z,2.30
2022-09-20T14:01:55.386Z,2.30
2022-09-20T14:04:26.490Z,2.40
2022-09-20T14:06:58.955Z,2.33
2022-09-20T14:09:31.612Z,3.30
2022-09-20T14:12:00.920Z,2.70
2022-09-20T14:14:29.802Z,2.57
2022-09-20T14:16:58.720Z,2.27
2022-09-20T14:19:31.498Z,2.47
2022-09-20T14:22:05.004Z,2.73
2022-09-20T14:24:35.529Z,2.20
2022-09-20T14:27:07.757Z,2.50
2022-09-20T14:29:41.010Z,2.60
2022-09-20T14:32:22.928Z,2.50
2022-09-20T14:35:00.112Z,3.73
2022-09-20T14:37:32.379Z,3.30
2022-09-20T14:40:03.509Z,3.50
2022-09-20T14:42:36.573Z,3.10
2022-09-20T14:45:06.215Z,2.93
2022-09-20T14:47:38.993Z,5.77
2022-09-20T14:50:24.822Z,28.93
2022-09-20T14:53:06.828Z,27.57
2022-09-20T14:55:37.928Z,30.33
2022-09-20T14:58:09.387Z,57.47
2022-09-20T15:00:52.940Z,43.53
2022-09-20T15:03:27.289Z,13.17
2022-09-20T15:05:56.032Z,6.17
2022-09-20T15:08:25.860Z,4.27
2022-09-20T15:10:53.678Z,6.37
2022-09-20T15:13:21.693Z,5.50
2022-09-20T15:15:52.149Z,4.57
2022-09-20T15:18:22.640Z,5.60
2022-09-20T15:20:51.061Z,4.10
2022-09-20T15:23:19.559Z,3.67
2022-09-20T15:25:51.466Z,3.53
2022-09-20T15:28:20.362Z,3.43
2022-09-20T15:30:50.032Z,3.40
2022-09-20T15:33:18.711Z,3.60
2022-09-20T15:35:47.256Z,4.70
2022-09-20T15:38:15.839Z,4.40
2022-09-20T15:40:45.521Z,3.87
2022-09-20T15:43:16.990Z,4.77
2022-09-20T15:45:50.532Z,3.93
2022-09-20T15:48:21.394Z,10.03
2022-09-20T15:51:02.866Z,69.70
2022-09-20T15:53:34.168Z,41.67
2022-09-20T15:56:04.423Z,13.53
2022-09-20T15:58:36.412Z,8.23
2022-09-20T16:01:06.898Z,5.47
2022-09-20T16:03:35.532Z,5.00
2022-09-20T16:06:05.696Z,6.27
2022-09-20T16:08:33.944Z,4.40
2022-09-20T16:11:03.086Z,8.37
2022-09-20T16:13:31.086Z,3.93
2022-09-20T16:16:01.641Z,4.90
2022-09-20T16:18:47.807Z,4.57
2022-09-20T16:21:18.087Z,6.33
2022-09-20T16:23:49.107Z,3.00
2022-09-20T16:26:17.438Z,3.40
2022-09-20T16:28:47.761Z,3.83
2022-09-20T16:31:36.584Z,2.73
2022-09-20T16:34:05.967Z,2.97
2022-09-20T16:36:34.219Z,2.70
2022-09-20T16:39:03.175Z,2.63
2022-09-20T16:41:31.988Z,3.43
2022-09-20T16:43:59.778Z,3.63
2022-09-20T16:46:28.174Z,3.57
2022-09-20T16:49:00.924Z,5.87
2022-09-20T16:51:34.030Z,6.97
2022-09-20T16:54:06.859Z,4.30
2022-09-20T16:56:36.214Z,3.57
2022-09-20T16:59:05.814Z,8.70
2022-09-20T17:01:34.367Z,5.17
2022-09-20T17:04:05.197Z,4.17
2022-09-20T17:06:35.051Z,5.80
2022-09-20T17:09:03.629Z,3.80
2022-09-20T17:11:33.117Z,17.47
2022-09-20T17:14:01.019Z,10.63
2022-09-20T17:16:30.652Z,7.80
2022-09-20T17:19:00.569Z,5.70
2022-09-20T17:21:31.138Z,6.30
2022-09-20T17:24:00.642Z,4.80
2022-09-20T17:26:31.412Z,4.40
2022-09-20T17:28:59.283Z,3.63
2022-09-20T17:31:33.908Z,3.70
2022-09-20T17:34:02.379Z,4.73
2022-09-20T17:36:33.001Z,5.23
2022-09-20T17:39:04.502Z,4.40
2022-09-20T17:41:33.754Z,4.40
2022-09-20T17:44:07.923Z,6.47
2022-09-20T17:46:37.416Z,8.20
2022-09-20T17:49:07.341Z,10.20
2022-09-20T17:51:38.666Z,7.60
2022-09-20T17:54:07.617Z,8.97
2022-09-20T17:56:36.217Z,20.80
2022-09-20T17:59:06.252Z,15.90
2022-09-20T18:01:36.928Z,11.33
2022-09-20T18:04:06.907Z,10.20
2022-09-20T18:06:37.459Z,11.10
2022-09-20T18:09:09.176Z,8.70
2022-09-20T18:11:38.997Z,7.47
2022-09-20T18:14:08.426Z,12.07
2022-09-20T18:16:37.081Z,11.33
2022-09-20T18:19:06.072Z,10.80
2022-09-20T18:21:36.908Z,10.43
2022-09-20T18:24:07.039Z,10.40
2022-09-20T18:26:35.903Z,7.87
2022-09-20T18:29:06.389Z,9.20
2022-09-20T18:31:36.821Z,12.77
2022-09-20T18:34:06.573Z,13.10
2022-09-20T18:36:39.040Z,11.97
2022-09-20T18:39:07.692Z,7.70
2022-09-20T18:41:37.264Z,10.93
2022-09-20T18:44:07.528Z,6.33
2022-09-20T18:46:38.140Z,7.13
2022-09-20T18:49:08.271Z,7.80
2022-09-20T18:51:39.990Z,7.57
2022-09-20T18:54:10.107Z,5.77
2022-09-20T18:56:39.202Z,6.70
2022-09-20T18:59:09.157Z,5.83
2022-09-20T19:02:09.864Z,7.00
2022-09-20T19:04:52.072Z,6.00
2022-09-20T19:07:29.392Z,5.63
2022-09-20T19:10:04.127Z,4.80
2022-09-20T19:12:37.280Z,5.77
2022-09-20T19:15:21.409Z,4.73
2022-09-20T19:18:06.067Z,5.13
2022-09-20T19:20:41.971Z,7.03
2022-09-20T19:23:28.865Z,6.47
2022-09-20T19:26:08.201Z,6.63
2022-09-20T19:28:36.508Z,5.30
2022-09-20T19:31:04.955Z,7.10
2022-09-20T19:33:33.246Z,7.43
2022-09-20T19:36:03.231Z,6.53
2022-09-20T19:38:41.316Z,5.70
2022-09-20T19:41:27.404Z,7.10
2022-09-20T19:44:14.236Z,6.97
2022-09-20T19:46:53.081Z,8.13
2022-09-20T19:49:28.473Z,7.30
2022-09-20T19:51:57.768Z,7.13
2022-09-20T19:54:27.564Z,8.60
2022-09-20T19:56:57.639Z,7.80
2022-09-20T19:59:27.312Z,6.83
2022-09-20T20:01:56.411Z,5.90
2022-09-20T20:04:24.794Z,6.63
2022-09-20T20:07:02.066Z,6.47
2022-09-20T20:09:39.920Z,7.30
2022-09-20T20:12:15.490Z,6.27
2022-09-20T20:14:54.278Z,7.83
2022-09-20T20:17:35.933Z,6.73
2022-09-20T20:20:20.092Z,7.33
2022-09-20T20:23:12.290Z,6.53
2022-09-20T20:25:48.023Z,7.83
2022-09-20T20:28:15.835Z,6.87
2022-09-20T20:30:43.610Z,5.80
2022-09-20T20:33:15.015Z,7.17
2022-09-20T20:35:43.002Z,6.90
2022-09-20T20:38:12.553Z,7.27
2022-09-20T20:40:41.714Z,6.83
2022-09-20T20:43:09.861Z,6.77
2022-09-20T20:45:38.618Z,9.00
2022-09-20T20:48:06.373Z,6.70
2022-09-20T20:50:35.345Z,6.63
2022-09-20T20:53:03.132Z,7.73
2022-09-20T20:55:31.246Z,7.27
2022-09-20T20:58:00.339Z,10.53
2022-09-20T21:00:29.944Z,7.97
2022-09-20T21:02:59.874Z,9.30
2022-09-20T21:05:28.769Z,8.20
2022-09-20T21:07:57.865Z,8.83
2022-09-20T21:10:25.831Z,9.80
2022-09-20T21:12:55.394Z,8.83
2022-09-20T21:15:24.520Z,9.00
2022-09-20T21:17:52.901Z,8.03
2022-09-20T21:20:21.340Z,6.90
2022-09-20T21:22:49.163Z,7.63
2022-09-20T21:25:17.251Z,8.17
2022-09-20T21:27:45.159Z,7.00
2022-09-20T21:30:13.777Z,6.90
2022-09-20T21:32:42.904Z,10.00
2022-09-20T21:35:11.401Z,8.77
2022-09-20T21:37:39.400Z,12.80
2022-09-20T21:40:09.004Z,8.40
2022-09-20T21:42:36.769Z,10.37
2022-09-20T21:45:08.494Z,9.10
2022-09-20T21:47:36.294Z,7.97
2022-09-20T21:50:06.176Z,8.47
2022-09-20T21:52:34.469Z,8.60
2022-09-20T21:55:02.234Z,7.93
2022-09-20T21:57:29.992Z,9.83
2022-09-20T21:59:57.757Z,10.90
2022-09-20T22:02:25.590Z,7.70
2022-09-20T22:04:53.489Z,8.27
2022-09-20T22:07:23.201Z,8.57
2022-09-20T22:09:51.033Z,9.07
2022-09-20T22:12:18.813Z,8.07
2022-09-20T22:14:46.600Z,9.03
2022-09-20T22:17:14.421Z,8.17
2022-09-20T22:19:42.316Z,9.10
2022-09-20T22:22:10.063Z,8.70
2022-09-20T22:24:39.183Z,8.70
2022-09-20T22:27:07.126Z,10.57
2022-09-20T22:29:35.159Z,10.67
2022-09-20T22:32:03.132Z,8.23
2022-09-20T22:34:30.882Z,7.33
2022-09-20T22:36:58.631Z,7.90
2022-09-20T22:39:26.447Z,7.87
2022-09-20T22:41:55.615Z,8.13
2022-09-20T22:44:23.452Z,8.40
2022-09-20T22:46:51.493Z,7.37
2022-09-20T22:49:19.279Z,7.30
2022-09-20T22:51:47.050Z,7.23
2022-09-20T22:54:14.875Z,7.43
2022-09-20T22:56:42.728Z,6.40
2022-09-20T22:59:13.470Z,8.47
2022-09-20T23:01:42.891Z,7.90
2022-09-20T23:04:12.904Z,9.10
2022-09-20T23:06:42.596Z,9.33
2022-09-20T23:09:12.411Z,10.43
2022-09-20T23:11:42.677Z,8.70
2022-09-20T23:14:13.883Z,9.40
2022-09-20T23:16:42.075Z,8.97
2022-09-20T23:19:10.705Z,10.07
2022-09-20T23:21:40.013Z,9.50
2022-09-20T23:24:10.081Z,9.20
2022-09-20T23:26:39.225Z,9.00
2022-09-20T23:29:08.992Z,8.57
2022-09-20T23:31:39.704Z,8.57
2022-09-20T23:34:08.911Z,13.17
2022-09-20T23:36:38.555Z,9.40
2022-09-20T23:39:07.405Z,9.87
2022-09-20T23:41:36.520Z,10.50
2022-09-20T23:44:06.394Z,9.73
2022-09-20T23:46:35.153Z,9.43
2022-09-20T23:49:04.462Z,9.20
2022-09-20T23:51:35.261Z,10.47
2022-09-20T23:54:03.097Z,11.67
2022-09-20T23:56:31.240Z,10.77
2022-09-20T23:58:59.144Z,8.40
